Time;durP1;ratioP1;P1;durP2;ratioP2;P2;SDS_P1;SDS_P2;PMS_P1;PMS_P2;Temp;Humidity;BMP_temperature;BMP_pressure;BME280_temperature;BME280_humidity;BME280_pressure;Samples;Min_cycle;Max_cycle;Signal;HPM_P1;HPM_P2
2022/09/14 00:01:16;;;;;;;2.67;1.37;;;;;;;;;;5052401;28;20200;-63
2022/09/14 00:04:01;;;;;;;2.50;1.53;;;;;;;;;;5055492;28;20217;-63
2022/09/14 00:06:29;;;;;;;2.23;1.53;;;;;;;;;;5044777;28;20182;-63
2022/09/14 00:09:00;;;;;;;2.83;1.57;;;;;;;;;;5026133;28;20228;-63
2022/09/14 00:11:31;;;;;;;5.43;1.57;;;;;;;;;;5046294;28;20217;-63
2022/09/14 00:14:02;;;;;;;4.83;1.70;;;;;;;;;;5055286;28;20293;-63
2022/09/14 00:16:35;;;;;;;3.57;1.53;;;;;;;;;;5044946;28;20221;-63
2022/09/14 00:19:07;;;;;;;2.30;1.33;;;;;;;;;;5035904;28;20567;-63
2022/09/14 00:21:38;;;;;;;3.43;1.50;;;;;;;;;;5048153;28;20405;-63
2022/09/14 00:24:07;;;;;;;4.67;1.70;;;;;;;;;;5046207;28;20252;-63
2022/09/14 00:26:40;;;;;;;4.57;1.60;;;;;;;;;;5014553;28;20619;-63
2022/09/14 00:29:12;;;;;;;3.37;1.63;;;;;;;;;;5058860;28;20186;-63
2022/09/14 00:31:42;;;;;;;1.90;1.27;;;;;;;;;;5051615;28;20206;-63
2022/09/14 00:34:35;;;;;;;3.40;1.67;;;;;;;;;;5031740;28;20544;-63
2022/09/14 00:37:08;;;;;;;3.10;1.60;;;;;;;;;;5034715;28;20190;-63
2022/09/14 00:39:38;;;;;;;4.07;1.60;;;;;;;;;;5042557;28;20194;-63
2022/09/14 00:42:14;;;;;;;2.90;1.80;;;;;;;;;;5047983;28;20202;-63
2022/09/14 00:44:48;;;;;;;4.17;1.67;;;;;;;;;;5056223;28;20569;-63
2022/09/14 00:47:16;;;;;;;3.67;1.60;;;;;;;;;;5033166;28;20221;-64
2022/09/14 00:49:58;;;;;;;4.57;1.90;;;;;;;;;;5041233;28;20686;-63
2022/09/14 00:52:36;;;;;;;4.77;1.40;;;;;;;;;;5041769;28;20198;-64
2022/09/14 00:55:06;;;;;;;2.43;1.50;;;;;;;;;;5032877;28;20256;-63
2022/09/14 00:57:41;;;;;;;3.27;1.47;;;;;;;;;;5042654;28;20194;-63
2022/09/14 01:00:17;;;;;;;2.33;1.30;;;;;;;;;;5070197;28;20242;-63
2022/09/14 01:02:53;;;;;;;3.00;1.40;;;;;;;;;;5068234;28;20213;-63
2022/09/14 01:05:35;;;;;;;5.43;1.87;;;;;;;;;;5057044;28;20200;-63
2022/09/14 01:08:24;;;;;;;2.27;1.60;;;;;;;;;;5077756;28;20198;-63
2022/09/14 01:11:14;;;;;;;3.80;1.83;;;;;;;;;;5055230;28;20222;-64
2022/09/14 01:13:59;;;;;;;3.67;1.80;;;;;;;;;;5049996;28;20261;-63
2022/09/14 01:16:36;;;;;;;2.53;1.70;;;;;;;;;;5060164;28;20218;-64
2022/09/14 01:19:23;;;;;;;3.60;1.50;;;;;;;;;;5067391;28;20247;-64
2022/09/14 01:21:56;;;;;;;3.70;1.70;;;;;;;;;;5065696;28;20217;-64
2022/09/14 01:24:33;;;;;;;2.53;1.33;;;;;;;;;;5079069;28;20209;-64
2022/09/14 01:27:34;;;;;;;3.03;1.60;;;;;;;;;;5063238;28;20225;-64
2022/09/14 01:30:09;;;;;;;3.00;1.50;;;;;;;;;;5072041;28;20275;-64
2022/09/14 01:32:43;;;;;;;2.93;1.30;;;;;;;;;;5063292;28;20643;-63
2022/09/14 01:35:30;;;;;;;3.67;1.63;;;;;;;;;;5060552;28;20758;-64
2022/09/14 01:38:28;;;;;;;2.70;1.50;;;;;;;;;;5067429;28;20185;-63
2022/09/14 01:41:12;;;;;;;2.13;1.37;;;;;;;;;;5053361;28;20202;-63
2022/09/14 01:43:57;;;;;;;3.70;1.90;;;;;;;;;;5073978;28;20218;-63
2022/09/14 01:46:35;;;;;;;3.13;1.43;;;;;;;;;;5048760;28;20221;-63
2022/09/14 01:49:23;;;;;;;3.00;1.70;;;;;;;;;;5058870;28;20216;-64
2022/09/14 01:52:26;;;;;;;3.10;1.67;;;;;;;;;;5067426;28;20257;-63
2022/09/14 01:55:24;;;;;;;3.30;1.80;;;;;;;;;;5073511;28;20197;-64
2022/09/14 01:58:08;;;;;;;2.53;1.40;;;;;;;;;;5051910;28;20201;-63
2022/09/14 02:00:41;;;;;;;6.07;1.50;;;;;;;;;;5045255;28;20213;-64
2022/09/14 02:03:13;;;;;;;3.50;1.47;;;;;;;;;;5042489;28;20647;-64
2022/09/14 02:06:03;;;;;;;1.80;1.47;;;;;;;;;;5033130;28;20678;-64
2022/09/14 02:08:36;;;;;;;2.73;1.50;;;;;;;;;;5043941;28;20194;-64
2022/09/14 02:11:11;;;;;;;5.63;1.97;;;;;;;;;;5047821;28;20235;-64
2022/09/14 02:13:43;;;;;;;2.67;1.53;;;;;;;;;;5051942;28;20220;-65
2022/09/14 02:16:15;;;;;;;2.73;1.60;;;;;;;;;;5046374;28;20234;-64
2022/09/14 02:18:47;;;;;;;3.07;1.30;;;;;;;;;;5044192;28;20287;-64
2022/09/14 02:21:17;;;;;;;3.80;1.57;;;;;;;;;;5047239;28;20221;-64
2022/09/14 02:23:50;;;;;;;4.23;1.57;;;;;;;;;;5061973;28;20206;-64
2022/09/14 02:26:22;;;;;;;4.23;1.53;;;;;;;;;;5033875;28;20207;-64
2022/09/14 02:28:54;;;;;;;2.27;1.10;;;;;;;;;;5047112;28;20205;-64
2022/09/14 02:31:43;;;;;;;3.27;1.60;;;;;;;;;;5038621;28;20241;-64
2022/09/14 02:34:34;;;;;;;2.07;1.43;;;;;;;;;;5031539;28;20187;-64
2022/09/14 02:37:03;;;;;;;3.33;1.30;;;;;;;;;;5038666;28;20701;-64
2022/09/14 02:39:51;;;;;;;4.83;1.40;;;;;;;;;;5051571;28;20218;-64
2022/09/14 02:42:28;;;;;;;2.90;1.30;;;;;;;;;;5047271;28;20754;-64
2022/09/14 02:45:19;;;;;;;4.53;1.30;;;;;;;;;;5049674;28;20218;-64
2022/09/14 02:48:25;;;;;;;2.27;1.00;;;;;;;;;;5039299;28;20194;-64
2022/09/14 02:51:13;;;;;;;3.47;1.30;;;;;;;;;;4984327;28;20677;-64
2022/09/14 02:53:50;;;;;;;1.77;1.00;;;;;;;;;;4985664;28;20303;-64
2022/09/14 02:56:20;;;;;;;2.10;1.23;;;;;;;;;;4989416;28;20263;-64
2022/09/14 02:58:52;;;;;;;3.60;1.30;;;;;;;;;;5028850;28;20374;-64
2022/09/14 03:01:27;;;;;;;2.87;1.20;;;;;;;;;;5050470;28;20255;-64
2022/09/14 03:04:01;;;;;;;2.43;1.20;;;;;;;;;;5062157;28;20259;-64
2022/09/14 03:06:29;;;;;;;2.40;1.10;;;;;;;;;;5066967;28;20186;-64
2022/09/14 03:09:14;;;;;;;2.57;1.27;;;;;;;;;;5067568;28;20255;-64
2022/09/14 03:11:45;;;;;;;2.50;1.47;;;;;;;;;;5070208;28;20217;-64
2022/09/14 03:14:14;;;;;;;2.57;1.30;;;;;;;;;;5056143;28;20209;-64
2022/09/14 03:16:47;;;;;;;2.17;1.03;;;;;;;;;;5063692;28;20341;-64
2022/09/14 03:19:18;;;;;;;1.90;1.10;;;;;;;;;;5071075;28;20186;-64
2022/09/14 03:21:50;;;;;;;3.20;1.67;;;;;;;;;;5069988;28;20193;-64
2022/09/14 03:24:22;;;;;;;3.43;1.43;;;;;;;;;;5069109;28;20232;-64
2022/09/14 03:26:54;;;;;;;2.53;1.30;;;;;;;;;;5067941;28;20300;-64
2022/09/14 03:29:26;;;;;;;2.60;1.30;;;;;;;;;;5081925;28;20198;-64
2022/09/14 03:31:56;;;;;;;2.43;1.13;;;;;;;;;;5080704;28;20258;-64
2022/09/14 03:34:33;;;;;;;1.97;1.20;;;;;;;;;;5053765;28;20190;-64
2022/09/14 03:37:05;;;;;;;2.07;1.27;;;;;;;;;;5057590;28;20213;-64
2022/09/14 03:39:37;;;;;;;1.37;1.00;;;;;;;;;;5074676;28;20297;-64
2022/09/14 03:42:06;;;;;;;2.83;0.73;;;;;;;;;;5073673;28;20201;-64
2022/09/14 03:44:36;;;;;;;1.40;1.10;;;;;;;;;;5066378;28;20281;-64
2022/09/14 03:47:09;;;;;;;2.77;1.20;;;;;;;;;;5069686;28;20634;-64
2022/09/14 03:49:49;;;;;;;3.27;1.20;;;;;;;;;;5085002;28;20213;-64
2022/09/14 03:52:18;;;;;;;3.07;1.00;;;;;;;;;;5066866;28;20245;-64
2022/09/14 03:54:48;;;;;;;2.97;1.37;;;;;;;;;;5066894;28;20247;-64
2022/09/14 03:57:20;;;;;;;1.77;0.80;;;;;;;;;;5072946;28;20213;-64
2022/09/14 04:00:12;;;;;;;2.73;1.20;;;;;;;;;;5056680;28;20208;-64
2022/09/14 04:02:45;;;;;;;1.40;0.83;;;;;;;;;;5062025;28;20940;-64
2022/09/14 04:05:18;;;;;;;2.07;1.00;;;;;;;;;;5069805;28;20191;-64
2022/09/14 04:07:53;;;;;;;1.67;0.90;;;;;;;;;;5071480;28;20798;-64
2022/09/14 04:10:25;;;;;;;3.83;1.33;;;;;;;;;;5064618;28;20201;-63
2022/09/14 04:13:00;;;;;;;3.37;0.90;;;;;;;;;;5064361;28;20546;-64
2022/09/14 04:15:30;;;;;;;3.37;1.33;;;;;;;;;;5062919;28;20229;-65
2022/09/14 04:18:00;;;;;;;1.93;1.20;;;;;;;;;;5067903;28;20600;-64
2022/09/14 04:20:30;;;;;;;2.67;1.10;;;;;;;;;;5067550;28;20197;-64
2022/09/14 04:23:02;;;;;;;1.50;0.73;;;;;;;;;;5068419;28;20209;-64
2022/09/14 04:25:33;;;;;;;2.47;0.90;;;;;;;;;;5075849;28;20204;-64
2022/09/14 04:28:04;;;;;;;5.33;1.40;;;;;;;;;;5058046;28;20233;-64
2022/09/14 04:30:57;;;;;;;2.17;1.23;;;;;;;;;;5070160;28;20928;-64
2022/09/14 04:33:33;;;;;;;2.00;0.90;;;;;;;;;;5068440;28;20190;-64
2022/09/14 04:36:19;;;;;;;1.13;0.90;;;;;;;;;;5049432;28;20202;-63
2022/09/14 04:38:56;;;;;;;1.83;1.03;;;;;;;;;;5062720;28;20221;-64
2022/09/14 04:41:32;;;;;;;1.03;0.80;;;;;;;;;;5070905;28;20204;-64
2022/09/14 04:44:01;;;;;;;2.57;1.10;;;;;;;;;;5059363;28;20194;-64
2022/09/14 04:46:33;;;;;;;2.70;1.00;;;;;;;;;;5050519;28;20194;-64
2022/09/14 04:49:05;;;;;;;1.73;0.90;;;;;;;;;;5081992;28;20209;-64
2022/09/14 04:51:34;;;;;;;2.13;1.00;;;;;;;;;;5063974;28;20751;-64
2022/09/14 04:54:06;;;;;;;1.33;0.90;;;;;;;;;;5056292;28;20205;-64
2022/09/14 04:56:36;;;;;;;2.40;0.83;;;;;;;;;;5085678;28;20202;-64
2022/09/14 04:59:05;;;;;;;2.33;1.00;;;;;;;;;;5079419;28;20253;-64
2022/09/14 05:01:40;;;;;;;2.70;1.03;;;;;;;;;;5051058;28;20210;-64
2022/09/14 05:04:14;;;;;;;2.13;0.90;;;;;;;;;;5075413;28;20225;-64
2022/09/14 05:06:46;;;;;;;2.27;0.90;;;;;;;;;;5053980;28;20244;-64
2022/09/14 05:09:21;;;;;;;3.50;1.27;;;;;;;;;;5051747;28;20204;-64
2022/09/14 05:11:54;;;;;;;1.40;1.00;;;;;;;;;;5079227;28;20246;-64
2022/09/14 05:14:22;;;;;;;1.43;0.63;;;;;;;;;;5043003;28;20301;-63
2022/09/14 05:16:50;;;;;;;2.50;1.13;;;;;;;;;;5077014;28;20195;-64
2022/09/14 05:19:22;;;;;;;2.10;1.03;;;;;;;;;;5043397;28;20660;-64
2022/09/14 05:22:02;;;;;;;2.57;1.17;;;;;;;;;;5042239;28;20291;-63
2022/09/14 05:24:31;;;;;;;4.07;1.17;;;;;;;;;;5042417;28;20211;-63
2022/09/14 05:27:06;;;;;;;2.07;1.00;;;;;;;;;;5060587;28;20217;-63
2022/09/14 05:29:41;;;;;;;1.83;0.87;;;;;;;;;;5078115;28;20193;-64
2022/09/14 05:32:13;;;;;;;2.87;1.20;;;;;;;;;;5048481;28;20595;-64
2022/09/14 05:34:44;;;;;;;2.47;0.87;;;;;;;;;;5077736;28;20521;-64
2022/09/14 05:37:12;;;;;;;2.63;1.13;;;;;;;;;;5046277;28;20210;-64
2022/09/14 05:39:58;;;;;;;2.83;0.90;;;;;;;;;;5050253;28;20202;-65
2022/09/14 05:42:32;;;;;;;3.73;0.90;;;;;;;;;;5007449;28;20203;-63
2022/09/14 05:45:03;;;;;;;2.80;1.40;;;;;;;;;;5041672;28;20206;-62
2022/09/14 05:47:35;;;;;;;4.10;1.30;;;;;;;;;;5034231;28;20222;-63
2022/09/14 05:50:07;;;;;;;2.30;1.00;;;;;;;;;;5048230;28;20201;-63
2022/09/14 05:52:38;;;;;;;2.07;1.23;;;;;;;;;;5031365;28;20832;-64
2022/09/14 05:55:13;;;;;;;3.87;1.47;;;;;;;;;;5040897;28;20203;-63
2022/09/14 05:57:58;;;;;;;4.87;2.40;;;;;;;;;;5037896;28;20194;-64
2022/09/14 06:00:32;;;;;;;7.47;2.37;;;;;;;;;;5045254;28;20198;-64
2022/09/14 06:03:02;;;;;;;8.47;2.87;;;;;;;;;;5040632;28;20213;-63
2022/09/14 06:05:34;;;;;;;12.00;2.47;;;;;;;;;;5047266;28;20194;-64
2022/09/14 06:08:19;;;;;;;6.00;2.10;;;;;;;;;;5041751;28;20194;-63
2022/09/14 06:10:52;;;;;;;6.37;3.07;;;;;;;;;;5031547;28;20199;-64
2022/09/14 06:13:22;;;;;;;9.93;2.73;;;;;;;;;;5029298;28;20223;-63
2022/09/14 06:15:55;;;;;;;6.97;2.60;;;;;;;;;;5046353;28;20309;-63
2022/09/14 06:18:25;;;;;;;9.77;2.60;;;;;;;;;;5038633;28;20210;-65
2022/09/14 06:20:57;;;;;;;11.23;2.83;;;;;;;;;;5040842;28;20285;-63
2022/09/14 06:23:32;;;;;;;8.60;2.57;;;;;;;;;;5046589;28;20206;-64
2022/09/14 06:26:09;;;;;;;6.20;2.37;;;;;;;;;;5047410;28;20198;-64
2022/09/14 06:28:41;;;;;;;5.57;2.30;;;;;;;;;;5038248;28;20215;-63
2022/09/14 06:31:21;;;;;;;6.83;1.97;;;;;;;;;;5036897;28;20182;-63
2022/09/14 06:33:55;;;;;;;3.53;1.70;;;;;;;;;;5045265;28;20229;-63
2022/09/14 06:36:28;;;;;;;4.00;1.90;;;;;;;;;;5041666;28;20256;-63
2022/09/14 06:39:00;;;;;;;6.47;2.53;;;;;;;;;;5039564;28;20198;-63
2022/09/14 06:41:35;;;;;;;4.90;2.30;;;;;;;;;;5028312;28;20224;-63
2022/09/14 06:44:20;;;;;;;6.53;2.20;;;;;;;;;;5043631;28;20214;-63
2022/09/14 06:46:54;;;;;;;8.70;2.43;;;;;;;;;;5059712;28;20646;-64
2022/09/14 06:49:22;;;;;;;4.40;2.13;;;;;;;;;;5043302;28;20624;-63
2022/09/14 06:51:56;;;;;;;3.90;1.70;;;;;;;;;;5034520;28;20234;-63
2022/09/14 06:54:24;;;;;;;3.40;1.80;;;;;;;;;;5048197;28;20199;-63
2022/09/14 06:56:57;;;;;;;6.40;2.33;;;;;;;;;;5037922;28;20210;-64
2022/09/14 06:59:29;;;;;;;4.33;1.60;;;;;;;;;;5047789;28;20642;-64
2022/09/14 07:02:09;;;;;;;5.70;2.07;;;;;;;;;;5036553;28;20202;-68
2022/09/14 07:04:38;;;;;;;30.90;6.53;;;;;;;;;;5046492;28;20654;-71
2022/09/14 07:07:09;;;;;;;47.00;9.53;;;;;;;;;;5032121;28;20202;-71
2022/09/14 07:09:37;;;;;;;45.33;9.40;;;;;;;;;;5048656;28;20203;-69
2022/09/14 07:12:10;;;;;;;47.73;10.03;;;;;;;;;;5052464;28;20320;-71
2022/09/14 07:14:39;;;;;;;41.83;9.27;;;;;;;;;;5048712;28;20601;-70
2022/09/14 07:17:15;;;;;;;40.63;10.37;;;;;;;;;;5051595;28;20213;-71
2022/09/14 07:19:47;;;;;;;31.87;9.17;;;;;;;;;;5051055;28;20239;-71
2022/09/14 07:22:16;;;;;;;28.33;7.70;;;;;;;;;;5046462;28;20310;-71
2022/09/14 07:24:45;;;;;;;21.70;6.87;;;;;;;;;;5086870;28;20217;-71
2022/09/14 07:27:19;;;;;;;26.33;7.40;;;;;;;;;;5063732;28;20201;-71
2022/09/14 07:29:53;;;;;;;25.17;6.43;;;;;;;;;;5056862;28;20273;-72
2022/09/14 07:32:21;;;;;;;17.87;5.50;;;;;;;;;;5016368;28;20233;-69
2022/09/14 07:34:52;;;;;;;13.77;5.20;;;;;;;;;;5040331;28;20199;-67
2022/09/14 07:37:22;;;;;;;14.40;4.20;;;;;;;;;;5050430;28;20214;-72
2022/09/14 07:39:57;;;;;;;15.10;4.03;;;;;;;;;;5044302;28;20213;-71
2022/09/14 07:42:32;;;;;;;7.83;3.50;;;;;;;;;;5061956;28;20666;-71
2022/09/14 07:45:04;;;;;;;10.50;2.77;;;;;;;;;;5050255;28;20247;-72
2022/09/14 07:47:42;;;;;;;11.40;3.20;;;;;;;;;;5046944;28;20202;-72
2022/09/14 07:50:18;;;;;;;5.00;2.13;;;;;;;;;;5044460;28;20202;-74
2022/09/14 07:52:50;;;;;;;8.73;2.30;;;;;;;;;;5041418;28;20313;-74
2022/09/14 07:55:35;;;;;;;4.47;1.93;;;;;;;;;;5045841;28;20198;-74
2022/09/14 07:58:10;;;;;;;6.10;2.03;;;;;;;;;;5046779;28;20226;-70
2022/09/14 08:00:41;;;;;;;5.27;1.70;;;;;;;;;;5018658;28;20195;-73
2022/09/14 08:03:12;;;;;;;3.73;1.80;;;;;;;;;;5039953;28;20202;-73
2022/09/14 08:05:45;;;;;;;6.73;1.60;;;;;;;;;;5064520;28;20232;-71
2022/09/14 08:08:17;;;;;;;5.37;1.70;;;;;;;;;;5027906;28;20563;-71
2022/09/14 08:10:50;;;;;;;4.23;1.30;;;;;;;;;;5034247;28;20682;-71
2022/09/14 08:13:24;;;;;;;2.97;1.43;;;;;;;;;;5043690;28;20627;-74
2022/09/14 08:15:57;;;;;;;1.47;1.10;;;;;;;;;;5023687;28;20216;-72
2022/09/14 08:18:29;;;;;;;2.13;1.20;;;;;;;;;;5047710;28;20201;-71
2022/09/14 08:20:56;;;;;;;1.73;0.93;;;;;;;;;;5063479;28;20208;-73
2022/09/14 08:23:25;;;;;;;2.80;1.20;;;;;;;;;;5041879;28;20628;-73
2022/09/14 08:25:54;;;;;;;2.03;0.90;;;;;;;;;;5042593;28;20203;-74
2022/09/14 08:28:23;;;;;;;5.20;1.10;;;;;;;;;;5045709;28;20218;-72
2022/09/14 08:30:51;;;;;;;2.63;1.00;;;;;;;;;;5018582;28;20210;-73
2022/09/14 08:33:23;;;;;;;6.93;2.00;;;;;;;;;;5063248;28;20679;-71
2022/09/14 08:35:52;;;;;;;2.97;1.40;;;;;;;;;;5061087;28;20290;-70
2022/09/14 08:38:30;;;;;;;6.87;1.80;;;;;;;;;;5044010;28;20260;-67
2022/09/14 08:41:51;;;;;;;5.47;1.90;;;;;;;;;;5045450;28;20202;-70
2022/09/14 08:44:37;;;;;;;5.87;1.73;;;;;;;;;;4986533;28;20196;-71
2022/09/14 08:47:13;;;;;;;5.27;1.83;;;;;;;;;;4985556;28;20216;-70
2022/09/14 08:49:50;;;;;;;6.20;1.40;;;;;;;;;;4980699;28;20277;-70
2022/09/14 08:52:28;;;;;;;4.73;1.20;;;;;;;;;;4979271;28;20213;-70
2022/09/14 08:54:58;;;;;;;2.67;1.00;;;;;;;;;;4987738;28;20712;-74
2022/09/14 08:57:28;;;;;;;2.83;1.10;;;;;;;;;;4981097;28;20690;-75
2022/09/14 09:00:16;;;;;;;5.43;1.30;;;;;;;;;;4991106;28;20247;-71
2022/09/14 09:03:24;;;;;;;2.63;1.27;;;;;;;;;;4971945;28;21091;-70
2022/09/14 09:06:04;;;;;;;3.83;1.30;;;;;;;;;;4945244;29;20220;-72
2022/09/14 09:08:42;;;;;;;1.97;1.10;;;;;;;;;;4944515;29;20218;-70
2022/09/14 09:11:19;;;;;;;3.30;1.17;;;;;;;;;;4973748;28;20213;-70
2022/09/14 09:13:51;;;;;;;4.90;1.20;;;;;;;;;;4982094;28;20229;-70
2022/09/14 09:16:23;;;;;;;3.97;1.17;;;;;;;;;;5043603;28;20217;-70
2022/09/14 09:19:03;;;;;;;1.73;1.10;;;;;;;;;;5043549;28;20201;-70
2022/09/14 09:21:38;;;;;;;2.87;1.20;;;;;;;;;;5035419;28;20190;-70
2022/09/14 09:24:28;;;;;;;1.80;1.10;;;;;;;;;;5041576;28;20256;-70
2022/09/14 09:27:15;;;;;;;2.73;1.00;;;;;;;;;;5045633;28;20210;-70
2022/09/14 09:29:45;;;;;;;1.53;0.90;;;;;;;;;;5046265;28;20744;-70
2022/09/14 09:32:19;;;;;;;1.60;0.93;;;;;;;;;;5043623;28;20230;-71
2022/09/14 09:34:48;;;;;;;2.93;1.00;;;;;;;;;;5056709;28;20330;-71
2022/09/14 09:37:22;;;;;;;1.20;0.80;;;;;;;;;;5059316;28;20289;-71
2022/09/14 09:39:52;;;;;;;2.20;1.00;;;;;;;;;;5043340;28;21632;-73
2022/09/14 09:42:23;;;;;;;2.30;1.10;;;;;;;;;;5044871;28;20647;-70
2022/09/14 09:45:07;;;;;;;2.40;1.03;;;;;;;;;;5041799;28;20838;-70
2022/09/14 09:47:41;;;;;;;1.93;0.90;;;;;;;;;;5032039;28;20246;-71
2022/09/14 09:50:25;;;;;;;1.67;0.97;;;;;;;;;;5036454;28;20221;-70
2022/09/14 09:53:03;;;;;;;1.07;0.80;;;;;;;;;;5039658;28;20222;-70
2022/09/14 09:55:40;;;;;;;1.60;0.80;;;;;;;;;;5035352;28;20202;-70
2022/09/14 09:58:21;;;;;;;2.30;1.10;;;;;;;;;;5061461;28;20879;-69
2022/09/14 10:00:58;;;;;;;0.90;0.67;;;;;;;;;;5043027;28;20626;-63
2022/09/14 10:03:31;;;;;;;2.63;1.33;;;;;;;;;;5032973;28;20668;-66
2022/09/14 10:06:08;;;;;;;2.13;1.10;;;;;;;;;;5038774;28;20193;-66
2022/09/14 10:08:47;;;;;;;3.07;1.20;;;;;;;;;;5034122;28;20191;-66
2022/09/14 10:11:35;;;;;;;2.10;1.20;;;;;;;;;;5031572;28;20260;-66
2022/09/14 10:14:25;;;;;;;1.80;1.00;;;;;;;;;;5020705;28;20210;-65
2022/09/14 10:17:05;;;;;;;2.20;1.17;;;;;;;;;;5038564;28;20221;-65
2022/09/14 10:19:38;;;;;;;1.97;1.00;;;;;;;;;;5058392;28;20228;-65
2022/09/14 10:22:30;;;;;;;3.77;1.20;;;;;;;;;;5048364;28;20202;-65
2022/09/14 10:25:24;;;;;;;2.60;1.00;;;;;;;;;;5041729;28;20671;-65
2022/09/14 10:28:00;;;;;;;2.27;0.83;;;;;;;;;;5043769;28;20222;-66
2022/09/14 10:30:50;;;;;;;2.20;0.90;;;;;;;;;;5041593;28;20190;-65
2022/09/14 10:33:22;;;;;;;1.90;1.23;;;;;;;;;;5034937;28;20711;-65
2022/09/14 10:36:24;;;;;;;2.23;1.20;;;;;;;;;;5040948;28;20225;-65
2022/09/14 10:39:14;;;;;;;2.10;0.97;;;;;;;;;;5029767;28;20224;-65
2022/09/14 10:42:29;;;;;;;1.90;1.30;;;;;;;;;;5045225;28;20632;-65
2022/09/14 10:45:04;;;;;;;3.33;1.00;;;;;;;;;;5003000;28;20207;-65
2022/09/14 10:47:42;;;;;;;2.60;1.00;;;;;;;;;;4999744;28;20775;-65
2022/09/14 10:50:21;;;;;;;2.43;1.20;;;;;;;;;;5003620;28;20207;-65
2022/09/14 10:52:51;;;;;;;3.40;1.30;;;;;;;;;;4999983;28;20329;-65
2022/09/14 10:55:42;;;;;;;3.40;1.10;;;;;;;;;;4981303;28;20503;-72
2022/09/14 10:58:27;;;;;;;6.40;1.53;;;;;;;;;;5005616;28;20306;-74
2022/09/14 11:01:00;;;;;;;3.60;1.20;;;;;;;;;;5020355;28;20203;-71
2022/09/14 11:03:48;;;;;;;1.73;1.03;;;;;;;;;;5019198;28;20317;-70
2022/09/14 11:06:23;;;;;;;4.73;1.17;;;;;;;;;;5046629;28;20617;-72
2022/09/14 11:09:01;;;;;;;5.30;1.20;;;;;;;;;;5063987;28;20193;-72
2022/09/14 11:12:08;;;;;;;1.77;1.00;;;;;;;;;;5067106;28;20197;-71
2022/09/14 11:14:58;;;;;;;1.23;0.80;;;;;;;;;;4999320;28;20231;-71
2022/09/14 11:17:39;;;;;;;2.30;1.00;;;;;;;;;;5001182;28;20774;-71
2022/09/14 11:20:14;;;;;;;2.17;0.90;;;;;;;;;;4992441;28;20204;-71
2022/09/14 11:22:43;;;;;;;1.80;1.13;;;;;;;;;;5001515;28;20203;-72
2022/09/14 11:25:22;;;;;;;1.60;0.80;;;;;;;;;;5011057;28;20223;-70
2022/09/14 11:28:11;;;;;;;2.83;0.90;;;;;;;;;;5045592;28;20213;-70
2022/09/14 11:30:47;;;;;;;1.13;0.73;;;;;;;;;;5062244;28;20210;-73
2022/09/14 11:33:37;;;;;;;1.43;0.90;;;;;;;;;;5076124;28;20214;-72
2022/09/14 11:36:16;;;;;;;1.53;1.00;;;;;;;;;;5067983;28;20189;-73
2022/09/14 11:39:04;;;;;;;1.90;1.00;;;;;;;;;;5080117;28;20225;-71
2022/09/14 11:41:45;;;;;;;3.50;0.90;;;;;;;;;;5060093;28;20209;-66
2022/09/14 11:44:38;;;;;;;1.90;1.00;;;;;;;;;;5062135;28;21621;-66
2022/09/14 11:47:18;;;;;;;2.00;0.80;;;;;;;;;;5065789;28;20259;-66
2022/09/14 11:50:04;;;;;;;2.40;1.00;;;;;;;;;;5065070;28;20194;-66
2022/09/14 11:52:35;;;;;;;2.40;1.00;;;;;;;;;;5061899;28;20283;-66
2022/09/14 11:55:10;;;;;;;14.67;4.00;;;;;;;;;;5065150;28;20189;-66
2022/09/14 11:57:43;;;;;;;25.63;7.17;;;;;;;;;;5069102;28;20181;-65
2022/09/14 12:00:24;;;;;;;28.37;8.40;;;;;;;;;;5046487;28;20186;-65
2022/09/14 12:03:01;;;;;;;25.53;8.43;;;;;;;;;;5077698;28;20263;-65
2022/09/14 12:05:30;;;;;;;21.07;7.10;;;;;;;;;;5080444;28;20198;-65
2022/09/14 12:07:59;;;;;;;13.27;4.90;;;;;;;;;;5062748;28;20255;-67
2022/09/14 12:10:33;;;;;;;11.60;4.77;;;;;;;;;;5063782;28;20277;-66
2022/09/14 12:13:06;;;;;;;13.17;4.50;;;;;;;;;;5067420;28;20552;-66
2022/09/14 12:15:39;;;;;;;10.63;3.67;;;;;;;;;;5061306;28;20210;-66
2022/09/14 12:18:22;;;;;;;5.50;2.30;;;;;;;;;;5061744;28;20201;-66
2022/09/14 12:21:21;;;;;;;6.63;2.97;;;;;;;;;;5037686;28;20217;-66
2022/09/14 12:23:56;;;;;;;7.27;3.10;;;;;;;;;;5013353;28;20217;-66
2022/09/14 12:26:53;;;;;;;7.93;2.63;;;;;;;;;;5056754;28;20235;-66
2022/09/14 12:29:29;;;;;;;5.07;2.73;;;;;;;;;;5073382;28;20208;-66
2022/09/14 12:32:39;;;;;;;4.17;2.27;;;;;;;;;;5048828;28;20202;-66
2022/09/14 12:35:32;;;;;;;5.80;2.17;;;;;;;;;;5054554;28;20220;-66
2022/09/14 12:38:21;;;;;;;4.30;2.07;;;;;;;;;;5067309;28;20182;-66
2022/09/14 12:40:50;;;;;;;3.43;2.13;;;;;;;;;;5062030;28;20233;-66
2022/09/14 12:43:37;;;;;;;4.00;1.70;;;;;;;;;;5064143;28;20200;-66
2022/09/14 12:46:21;;;;;;;2.80;1.60;;;;;;;;;;5066305;28;20661;-66
2022/09/14 12:48:57;;;;;;;3.20;1.83;;;;;;;;;;5057745;28;20255;-66
2022/09/14 12:51:32;;;;;;;3.47;1.80;;;;;;;;;;5062285;28;20223;-66
2022/09/14 12:54:21;;;;;;;3.27;2.00;;;;;;;;;;5063070;28;20231;-66
2022/09/14 12:57:23;;;;;;;2.77;1.60;;;;;;;;;;5066442;28;20639;-67
2022/09/14 13:00:12;;;;;;;5.07;1.70;;;;;;;;;;5018402;28;20308;-66
2022/09/14 13:02:49;;;;;;;2.87;1.43;;;;;;;;;;5044593;28;20194;-66
2022/09/14 13:05:46;;;;;;;1.93;1.30;;;;;;;;;;5049399;28;20194;-67
2022/09/14 13:08:20;;;;;;;1.93;1.20;;;;;;;;;;5045331;28;20198;-66
2022/09/14 13:10:55;;;;;;;2.20;1.30;;;;;;;;;;5042279;28;20208;-66
2022/09/14 13:13:28;;;;;;;2.67;1.10;;;;;;;;;;5045285;28;20205;-66
2022/09/14 13:16:01;;;;;;;1.57;1.00;;;;;;;;;;5055180;28;20313;-66
2022/09/14 13:18:33;;;;;;;2.67;0.97;;;;;;;;;;5046393;28;20247;-66
2022/09/14 13:21:22;;;;;;;1.77;1.10;;;;;;;;;;5035857;28;20256;-66
2022/09/14 13:23:53;;;;;;;1.83;1.00;;;;;;;;;;5043678;28;20670;-66
2022/09/14 13:26:43;;;;;;;1.83;0.93;;;;;;;;;;5039377;28;20195;-66
2022/09/14 13:29:14;;;;;;;1.53;0.97;;;;;;;;;;5038536;28;20247;-66
2022/09/14 13:31:49;;;;;;;2.13;1.10;;;;;;;;;;5046469;28;20256;-66
2022/09/14 13:34:34;;;;;;;1.93;1.20;;;;;;;;;;5050187;28;20194;-66
2022/09/14 13:37:08;;;;;;;2.97;1.03;;;;;;;;;;5050278;28;20203;-65
2022/09/14 13:39:49;;;;;;;2.03;1.00;;;;;;;;;;5040041;28;20224;-66
2022/09/14 13:42:33;;;;;;;0.80;0.80;;;;;;;;;;5043739;28;20194;-66
2022/09/14 13:45:05;;;;;;;1.10;1.00;;;;;;;;;;5042119;28;20190;-66
2022/09/14 13:47:38;;;;;;;1.70;1.13;;;;;;;;;;5044744;28;20206;-66
2022/09/14 13:50:08;;;;;;;1.63;1.00;;;;;;;;;;5074923;28;20534;-66
2022/09/14 13:52:43;;;;;;;1.83;0.87;;;;;;;;;;5038533;28;20206;-66
2022/09/14 13:55:31;;;;;;;2.37;1.20;;;;;;;;;;5038562;28;20195;-66
2022/09/14 13:58:12;;;;;;;2.23;1.23;;;;;;;;;;5048682;28;20190;-66
2022/09/14 14:01:06;;;;;;;2.23;1.00;;;;;;;;;;5046447;28;20221;-66
2022/09/14 14:03:40;;;;;;;2.83;1.03;;;;;;;;;;5042488;28;20207;-66
2022/09/14 14:06:19;;;;;;;3.57;1.30;;;;;;;;;;5053834;28;20215;-66
2022/09/14 14:08:57;;;;;;;1.93;0.90;;;;;;;;;;5048287;28;20201;-66
2022/09/14 14:11:35;;;;;;;1.93;1.03;;;;;;;;;;5046497;28;20203;-66
2022/09/14 14:14:24;;;;;;;1.53;0.93;;;;;;;;;;5040913;28;20361;-66
2022/09/14 14:17:12;;;;;;;1.30;1.10;;;;;;;;;;5040288;28;20583;-66
2022/09/14 14:19:42;;;;;;;2.37;1.10;;;;;;;;;;5045205;28;20529;-66
2022/09/14 14:22:16;;;;;;;2.70;1.20;;;;;;;;;;5043217;28;20588;-66
2022/09/14 14:24:49;;;;;;;2.87;1.20;;;;;;;;;;5068743;28;20190;-66
2022/09/14 14:27:45;;;;;;;4.20;1.30;;;;;;;;;;5039224;28;20209;-66
2022/09/14 14:30:18;;;;;;;4.20;1.73;;;;;;;;;;5035831;28;20186;-66
2022/09/14 14:32:50;;;;;;;4.53;1.53;;;;;;;;;;5044708;28;20225;-65
2022/09/14 14:35:36;;;;;;;3.20;1.33;;;;;;;;;;5032190;28;20194;-66
2022/09/14 14:38:08;;;;;;;2.87;1.13;;;;;;;;;;5051492;28;20194;-65
2022/09/14 14:40:41;;;;;;;2.60;1.73;;;;;;;;;;5041577;28;20225;-66
2022/09/14 14:43:16;;;;;;;2.53;1.00;;;;;;;;;;5043565;28;20257;-66
2022/09/14 14:45:57;;;;;;;1.60;1.20;;;;;;;;;;5044440;28;20214;-66
2022/09/14 14:48:39;;;;;;;1.50;0.83;;;;;;;;;;5042933;28;20301;-66
2022/09/14 14:51:22;;;;;;;2.33;1.03;;;;;;;;;;5036301;28;20222;-67
2022/09/14 14:53:56;;;;;;;2.20;1.20;;;;;;;;;;5041293;28;20210;-66
2022/09/14 14:56:28;;;;;;;1.40;0.90;;;;;;;;;;5040967;28;20256;-66
2022/09/14 14:58:57;;;;;;;2.90;1.03;;;;;;;;;;5036519;28;20244;-69
2022/09/14 15:01:29;;;;;;;3.07;1.13;;;;;;;;;;5009064;28;20191;-71
2022/09/14 15:03:58;;;;;;;7.00;1.30;;;;;;;;;;5008203;28;20207;-71
2022/09/14 15:06:32;;;;;;;2.53;1.00;;;;;;;;;;5024506;28;20205;-71
2022/09/14 15:09:08;;;;;;;3.33;1.00;;;;;;;;;;5024771;28;20226;-72
2022/09/14 15:11:43;;;;;;;1.57;0.90;;;;;;;;;;5029951;28;20203;-73
2022/09/14 15:14:26;;;;;;;4.07;1.17;;;;;;;;;;5024626;28;20672;-74
2022/09/14 15:16:58;;;;;;;2.67;1.10;;;;;;;;;;5023012;28;20586;-73
2022/09/14 15:19:38;;;;;;;2.20;0.90;;;;;;;;;;5015353;28;20211;-70
2022/09/14 15:22:10;;;;;;;3.93;0.90;;;;;;;;;;5045034;28;20215;-73
2022/09/14 15:24:42;;;;;;;5.10;1.10;;;;;;;;;;5005437;28;20211;-71
2022/09/14 15:27:13;;;;;;;1.87;0.90;;;;;;;;;;5018266;28;20219;-71
2022/09/14 15:29:42;;;;;;;1.93;1.00;;;;;;;;;;5032026;28;20203;-71
2022/09/14 15:32:15;;;;;;;1.37;0.90;;;;;;;;;;5026008;28;20218;-71
2022/09/14 15:34:43;;;;;;;2.10;1.00;;;;;;;;;;5033594;28;20221;-73
2022/09/14 15:37:18;;;;;;;1.33;0.77;;;;;;;;;;5027070;28;20199;-72
2022/09/14 15:39:55;;;;;;;1.33;0.80;;;;;;;;;;5023214;28;20349;-73
2022/09/14 15:42:24;;;;;;;1.67;1.03;;;;;;;;;;5023521;28;20620;-71